sensor_id;sensor_type;location;lat;lon;timestamp;noise_LAeq;noise_LA_min;noise_LA_max;noise_LA01;noise_LA95
45478;Laerm;31227;47.986;11.868;2023-04-24T00:02:15;37.50;32.35;39.81;;
45478;Laerm;31227;47.986;11.868;2023-04-24T00:04:41;37.54;33.90;39.81;;
45478;Laerm;31227;47.986;11.868;2023-04-24T00:07:09;37.54;32.93;39.92;;
45478;Laerm;31227;47.986;11.868;2023-04-24T00:09:34;37.73;33.44;43.63;;
45478;Laerm;31227;47.986;11.868;2023-04-24T00:11:59;37.57;32.35;39.70;;
45478;Laerm;31227;47.986;11.868;2023-04-24T00:14:25;37.56;33.44;40.62;;
45478;Laerm;31227;47.986;11.868;2023-04-24T00:16:50;37.59;33.44;39.92;;
45478;Laerm;31227;47.986;11.868;2023-04-24T00:19:15;37.55;33.44;39.58;;
45478;Laerm;31227;47.986;11.868;2023-04-24T00:21:41;37.58;32.93;39.70;;
45478;Laerm;31227;47.986;11.868;2023-04-24T00:24:06;37.76;33.44;41.96;;
45478;Laerm;31227;47.986;11.868;2023-04-24T00:26:33;37.61;33.44;39.92;;
45478;Laerm;31227;47.986;11.868;2023-04-24T00:28:59;37.54;32.93;39.92;;
45478;Laerm;31227;47.986;11.868;2023-04-24T00:31:24;37.69;33.44;41.89;;
45478;Laerm;31227;47.986;11.868;2023-04-24T00:33:49;37.58;33.44;39.81;;
45478;Laerm;31227;47.986;11.868;2023-04-24T00:36:14;37.62;32.93;40.62;;
45478;Laerm;31227;47.986;11.868;2023-04-24T00:38:40;37.55;33.44;39.92;;
45478;Laerm;31227;47.986;11.868;2023-04-24T00:41:05;37.58;32.93;39.92;;
45478;Laerm;31227;47.986;11.868;2023-04-24T00:43:31;37.54;32.93;39.70;;
45478;Laerm;31227;47.986;11.868;2023-04-24T00:45:56;37.56;33.44;39.70;;
45478;Laerm;31227;47.986;11.868;2023-04-24T00:48:22;37.55;32.93;40.03;;
45478;Laerm;31227;47.986;11.868;2023-04-24T00:50:48;37.59;32.93;39.70;;
45478;Laerm;31227;47.986;11.868;2023-04-24T00:53:13;37.62;33.90;40.23;;
45478;Laerm;31227;47.986;11.868;2023-04-24T00:55:38;37.56;31.68;39.70;;
45478;Laerm;31227;47.986;11.868;2023-04-24T00:58:04;37.59;32.35;40.13;;
45478;Laerm;31227;47.986;11.868;2023-04-24T01:00:29;37.52;32.35;39.58;;
45478;Laerm;31227;47.986;11.868;2023-04-24T01:02:55;37.52;32.35;39.81;;
45478;Laerm;31227;47.986;11.868;2023-04-24T01:05:22;37.51;32.93;40.03;;
45478;Laerm;31227;47.986;11.868;2023-04-24T01:07:47;37.51;33.44;40.53;;
45478;Laerm;31227;47.986;11.868;2023-04-24T01:10:14;37.55;33.90;39.92;;
45478;Laerm;31227;47.986;11.868;2023-04-24T01:12:39;37.58;32.93;40.62;;
45478;Laerm;31227;47.986;11.868;2023-04-24T01:15:05;37.57;32.35;40.03;;
45478;Laerm;31227;47.986;11.868;2023-04-24T01:17:31;37.53;33.90;40.43;;
45478;Laerm;31227;47.986;11.868;2023-04-24T01:19:57;37.53;32.35;39.58;;
45478;Laerm;31227;47.986;11.868;2023-04-24T01:22:22;37.53;32.58;39.70;;
45478;Laerm;31227;47.986;11.868;2023-04-24T01:24:48;37.56;33.90;39.81;;
45478;Laerm;31227;47.986;11.868;2023-04-24T01:27:13;37.58;33.44;39.70;;
45478;Laerm;31227;47.986;11.868;2023-04-24T01:29:39;37.61;33.44;40.43;;
45478;Laerm;31227;47.986;11.868;2023-04-24T01:32:04;37.61;32.93;39.70;;
45478;Laerm;31227;47.986;11.868;2023-04-24T01:34:30;37.59;32.93;39.81;;
45478;Laerm;31227;47.986;11.868;2023-04-24T01:36:55;37.64;32.93;40.53;;
45478;Laerm;31227;47.986;11.868;2023-04-24T01:39:21;37.62;33.44;39.70;;
45478;Laerm;31227;47.986;11.868;2023-04-24T01:41:48;37.79;32.93;41.53;;
45478;Laerm;31227;47.986;11.868;2023-04-24T01:44:14;37.71;33.90;41.14;;
45478;Laerm;31227;47.986;11.868;2023-04-24T01:46:40;37.70;33.90;39.81;;
45478;Laerm;31227;47.986;11.868;2023-04-24T01:49:06;37.73;33.44;40.13;;
45478;Laerm;31227;47.986;11.868;2023-04-24T01:51:31;37.74;33.44;39.70;;
45478;Laerm;31227;47.986;11.868;2023-04-24T01:53:56;37.76;33.09;39.70;;
45478;Laerm;31227;47.986;11.868;2023-04-24T01:56:22;37.81;33.44;39.81;;
45478;Laerm;31227;47.986;11.868;2023-04-24T01:58:47;37.79;32.35;40.13;;
45478;Laerm;31227;47.986;11.868;2023-04-24T02:01:20;37.81;33.90;40.03;;
45478;Laerm;31227;47.986;11.868;2023-04-24T02:03:45;37.84;33.44;39.81;;
45478;Laerm;31227;47.986;11.868;2023-04-24T02:06:11;37.97;34.69;39.92;;
45478;Laerm;31227;47.986;11.868;2023-04-24T02:08:36;37.94;34.31;39.81;;
45478;Laerm;31227;47.986;11.868;2023-04-24T02:11:01;37.90;34.31;39.81;;
45478;Laerm;31227;47.986;11.868;2023-04-24T02:13:27;37.91;34.31;39.89;;
45478;Laerm;31227;47.986;11.868;2023-04-24T02:15:52;37.84;33.90;40.23;;
45478;Laerm;31227;47.986;11.868;2023-04-24T02:18:17;37.79;33.44;40.03;;
45478;Laerm;31227;47.986;11.868;2023-04-24T02:20:43;37.67;33.90;40.13;;
45478;Laerm;31227;47.986;11.868;2023-04-24T02:23:08;37.68;33.90;39.70;;
45478;Laerm;31227;47.986;11.868;2023-04-24T02:25:33;37.69;32.35;39.92;;
45478;Laerm;31227;47.986;11.868;2023-04-24T02:27:58;37.69;34.31;42.16;;
45478;Laerm;31227;47.986;11.868;2023-04-24T02:30:24;37.64;33.90;39.81;;
45478;Laerm;31227;47.986;11.868;2023-04-24T02:32:49;37.64;33.44;39.92;;
45478;Laerm;31227;47.986;11.868;2023-04-24T02:35:14;37.60;32.93;39.81;;
45478;Laerm;31227;47.986;11.868;2023-04-24T02:37:40;37.63;33.44;40.13;;
45478;Laerm;31227;47.986;11.868;2023-04-24T02:40:05;37.62;34.31;39.92;;
45478;Laerm;31227;47.986;11.868;2023-04-24T02:42:30;37.63;33.90;39.92;;
45478;Laerm;31227;47.986;11.868;2023-04-24T02:44:56;37.66;34.31;41.06;;
45478;Laerm;31227;47.986;11.868;2023-04-24T02:47:21;37.56;31.68;39.81;;
45478;Laerm;31227;47.986;11.868;2023-04-24T02:49:46;37.52;33.44;39.92;;
45478;Laerm;31227;47.986;11.868;2023-04-24T02:52:11;37.52;33.90;39.81;;
45478;Laerm;31227;47.986;11.868;2023-04-24T02:54:37;37.55;33.44;40.23;;
45478;Laerm;31227;47.986;11.868;2023-04-24T02:57:02;37.65;33.90;41.75;;
45478;Laerm;31227;47.986;11.868;2023-04-24T02:59:27;37.50;33.44;39.81;;
45478;Laerm;31227;47.986;11.868;2023-04-24T03:01:54;37.59;33.44;41.38;;
45478;Laerm;31227;47.986;11.868;2023-04-24T03:04:19;37.45;33.44;39.81;;
45478;Laerm;31227;47.986;11.868;2023-04-24T03:16:02;37.67;32.35;43.05;;
45478;Laerm;31227;47.986;11.868;2023-04-24T03:24:53;37.72;33.90;42.41;;
45478;Laerm;31227;47.986;11.868;2023-04-24T03:27:39;37.58;33.90;41.06;;
45478;Laerm;31227;47.986;11.868;2023-04-24T03:30:30;37.51;32.93;40.62;;
45478;Laerm;31227;47.986;11.868;2023-04-24T03:36:22;37.63;33.90;42.36;;
45478;Laerm;31227;47.986;11.868;2023-04-24T03:38:54;37.45;32.93;39.92;;
45478;Laerm;31227;47.986;11.868;2023-04-24T03:41:25;37.60;34.31;42.41;;
45478;Laerm;31227;47.986;11.868;2023-04-24T03:47:05;37.74;33.90;42.76;;
45478;Laerm;31227;47.986;11.868;2023-04-24T03:59:15;37.56;32.35;41.06;;
45478;Laerm;31227;47.986;11.868;2023-04-24T04:02:01;37.61;32.93;39.92;;
45478;Laerm;31227;47.986;11.868;2023-04-24T04:04:32;37.49;33.90;40.33;;
45478;Laerm;31227;47.986;11.868;2023-04-24T04:10:20;37.66;33.44;41.14;;
45478;Laerm;31227;47.986;11.868;2023-04-24T04:13:12;37.60;32.93;40.62;;
45478;Laerm;31227;47.986;11.868;2023-04-24T04:15:37;37.87;33.44;42.53;;
45478;Laerm;31227;47.986;11.868;2023-04-24T04:18:05;37.77;34.31;41.94;;
45478;Laerm;31227;47.986;11.868;2023-04-24T04:20:31;37.73;32.35;40.43;;
45478;Laerm;31227;47.986;11.868;2023-04-24T04:23:02;37.69;33.90;40.62;;
45478;Laerm;31227;47.986;11.868;2023-04-24T04:25:27;37.86;33.90;40.71;;
45478;Laerm;31227;47.986;11.868;2023-04-24T04:27:57;37.69;33.90;41.30;;
45478;Laerm;31227;47.986;11.868;2023-04-24T04:30:27;37.65;33.90;40.13;;
45478;Laerm;31227;47.986;11.868;2023-04-24T04:32:54;37.66;34.31;40.23;;
45478;Laerm;31227;47.986;11.868;2023-04-24T04:35:20;37.92;33.90;42.76;;
45478;Laerm;31227;47.986;11.868;2023-04-24T04:38:31;37.93;33.90;41.53;;
45478;Laerm;31227;47.986;11.868;2023-04-24T04:40:43;37.91;33.44;43.34;;
45478;Laerm;31227;47.986;11.868;2023-04-24T04:43:17;38.04;33.44;47.81;;
45478;Laerm;31227;47.986;11.868;2023-04-24T04:45:42;38.31;35.36;43.63;;
45478;Laerm;31227;47.986;11.868;2023-04-24T04:48:11;38.23;34.69;40.23;;
45478;Laerm;31227;47.986;11.868;2023-04-24T04:50:41;38.25;34.69;40.13;;
45478;Laerm;31227;47.986;11.868;2023-04-24T04:53:07;38.26;35.66;42.59;;
45478;Laerm;31227;47.986;11.868;2023-04-24T04:55:35;38.28;34.69;41.68;;
45478;Laerm;31227;47.986;11.868;2023-04-24T05:00:44;38.31;34.31;42.59;;
45478;Laerm;31227;47.986;11.868;2023-04-24T05:06:30;38.14;33.90;42.22;;
45478;Laerm;31227;47.986;11.868;2023-04-24T05:09:02;38.30;34.31;42.41;;
45478;Laerm;31227;47.986;11.868;2023-04-24T05:11:37;38.10;33.44;41.06;;
45478;Laerm;31227;47.986;11.868;2023-04-24T05:14:03;38.08;34.31;40.53;;
45478;Laerm;31227;47.986;11.868;2023-04-24T05:16:28;38.06;34.31;40.13;;
45478;Laerm;31227;47.986;11.868;2023-04-24T05:18:54;38.11;33.90;40.71;;
45478;Laerm;31227;47.986;11.868;2023-04-24T05:21:19;38.14;35.04;40.98;;
45478;Laerm;31227;47.986;11.868;2023-04-24T05:23:44;38.17;35.04;41.46;;
45478;Laerm;31227;47.986;11.868;2023-04-24T05:26:10;38.06;35.04;40.62;;
45478;Laerm;31227;47.986;11.868;2023-04-24T05:28:35;38.21;31.68;41.68;;
45478;Laerm;31227;47.986;11.868;2023-04-24T05:31:01;38.08;33.90;40.53;;
45478;Laerm;31227;47.986;11.868;2023-04-24T05:33:27;38.13;33.90;40.89;;
45478;Laerm;31227;47.986;11.868;2023-04-24T05:35:52;38.12;34.69;41.53;;
45478;Laerm;31227;47.986;11.868;2023-04-24T05:38:17;38.19;35.36;42.09;;
45478;Laerm;31227;47.986;11.868;2023-04-24T05:40:42;38.32;34.69;43.39;;
45478;Laerm;31227;47.986;11.868;2023-04-24T05:43:08;38.26;34.69;42.16;;
45478;Laerm;31227;47.986;11.868;2023-04-24T05:45:33;38.12;34.69;41.14;;
45478;Laerm;31227;47.986;11.868;2023-04-24T05:48:00;38.04;33.44;40.62;;
45478;Laerm;31227;47.986;11.868;2023-04-24T05:50:26;38.16;33.90;41.38;;
45478;Laerm;31227;47.986;11.868;2023-04-24T05:52:51;38.18;35.04;41.75;;
45478;Laerm;31227;47.986;11.868;2023-04-24T05:55:16;38.16;35.04;41.46;;
45478;Laerm;31227;47.986;11.868;2023-04-24T05:57:42;38.05;34.69;42.53;;
45478;Laerm;31227;47.986;11.868;2023-04-24T06:00:07;38.06;33.90;40.79;;
45478;Laerm;31227;47.986;11.868;2023-04-24T06:02:33;38.25;33.90;41.89;;
45478;Laerm;31227;47.986;11.868;2023-04-24T06:04:58;37.97;34.34;40.43;;
45478;Laerm;31227;47.986;11.868;2023-04-24T06:07:24;38.01;32.93;41.68;;
45478;Laerm;31227;47.986;11.868;2023-04-24T06:09:51;37.90;34.31;41.22;;
45478;Laerm;31227;47.986;11.868;2023-04-24T06:12:17;37.95;33.90;40.98;;
45478;Laerm;31227;47.986;11.868;2023-04-24T06:14:42;37.79;34.31;40.80;;
45478;Laerm;31227;47.986;11.868;2023-04-24T06:17:07;37.75;34.31;41.06;;
45478;Laerm;31227;47.986;11.868;2023-04-24T06:19:32;38.15;34.69;44.83;;
45478;Laerm;31227;47.986;11.868;2023-04-24T06:21:58;38.05;32.93;41.89;;
45478;Laerm;31227;47.986;11.868;2023-04-24T06:24:26;37.68;31.68;40.33;;
45478;Laerm;31227;47.986;11.868;2023-04-24T06:26:52;37.88;33.90;43.77;;
45478;Laerm;31227;47.986;11.868;2023-04-24T06:29:17;37.76;34.31;41.53;;
45478;Laerm;31227;47.986;11.868;2023-04-24T06:31:42;37.99;33.44;41.61;;
45478;Laerm;31227;47.986;11.868;2023-04-24T06:34:07;37.86;33.90;43.19;;
45478;Laerm;31227;47.986;11.868;2023-04-24T06:36:32;38.11;34.31;41.30;;
45478;Laerm;31227;47.986;11.868;2023-04-24T06:38:59;38.40;35.04;43.49;;
45478;Laerm;31227;47.986;11.868;2023-04-24T06:41:24;38.12;34.31;41.14;;
45478;Laerm;31227;47.986;11.868;2023-04-24T06:43:50;38.32;35.04;46.20;;
45478;Laerm;31227;47.986;11.868;2023-04-24T06:46:15;38.16;34.69;40.98;;
45478;Laerm;31227;47.986;11.868;2023-04-24T06:48:40;38.13;33.55;40.71;;
45478;Laerm;31227;47.986;11.868;2023-04-24T06:51:05;38.47;34.69;42.16;;
45478;Laerm;31227;47.986;11.868;2023-04-24T06:53:30;38.53;35.36;43.55;;
45478;Laerm;31227;47.986;11.868;2023-04-24T06:55:56;38.14;35.04;41.89;;
45478;Laerm;31227;47.986;11.868;2023-04-24T06:58:21;38.28;35.04;42.09;;
45478;Laerm;31227;47.986;11.868;2023-04-24T07:00:46;38.35;35.04;43.34;;
45478;Laerm;31227;47.986;11.868;2023-04-24T07:03:11;38.12;35.04;42.59;;
45478;Laerm;31227;47.986;11.868;2023-04-24T07:05:37;38.30;34.31;42.88;;
45478;Laerm;31227;47.986;11.868;2023-04-24T07:08:03;38.12;34.69;43.19;;
45478;Laerm;31227;47.986;11.868;2023-04-24T07:10:28;38.07;34.69;41.96;;
45478;Laerm;31227;47.986;11.868;2023-04-24T07:12:54;38.16;34.31;43.63;;
45478;Laerm;31227;47.986;11.868;2023-04-24T07:15:21;38.30;34.69;41.96;;
45478;Laerm;31227;47.986;11.868;2023-04-24T07:17:46;38.08;35.04;41.38;;
45478;Laerm;31227;47.986;11.868;2023-04-24T07:20:11;38.25;34.31;42.93;;
45478;Laerm;31227;47.986;11.868;2023-04-24T07:22:40;38.15;34.31;41.61;;
45478;Laerm;31227;47.986;11.868;2023-04-24T07:25:05;38.43;35.04;43.72;;
45478;Laerm;31227;47.986;11.868;2023-04-24T07:27:31;38.12;34.69;40.43;;
45478;Laerm;31227;47.986;11.868;2023-04-24T07:29:56;38.39;35.04;42.88;;
45478;Laerm;31227;47.986;11.868;2023-04-24T07:32:21;38.45;35.36;43.24;;
45478;Laerm;31227;47.986;11.868;2023-04-24T07:34:46;38.32;34.69;41.38;;
45478;Laerm;31227;47.986;11.868;2023-04-24T07:37:11;38.53;34.69;42.47;;
45478;Laerm;31227;47.986;11.868;2023-04-24T07:39:37;38.89;35.66;43.81;;
45478;Laerm;31227;47.986;11.868;2023-04-24T07:42:02;38.66;34.69;46.62;;
45478;Laerm;31227;47.986;11.868;2023-04-24T07:44:28;38.69;35.01;44.58;;
45478;Laerm;31227;47.986;11.868;2023-04-24T07:46:53;38.72;35.36;44.76;;
45478;Laerm;31227;47.986;11.868;2023-04-24T07:49:18;38.70;35.66;44.65;;
45478;Laerm;31227;47.986;11.868;2023-04-24T07:51:44;38.62;35.66;43.19;;
45478;Laerm;31227;47.986;11.868;2023-04-24T07:54:10;38.70;35.04;43.81;;
45478;Laerm;31227;47.986;11.868;2023-04-24T07:56:35;38.69;35.36;43.54;;
45478;Laerm;31227;47.986;11.868;2023-04-24T07:59:03;38.49;35.36;41.53;;
45478;Laerm;31227;47.986;11.868;2023-04-24T08:01:29;38.53;35.36;42.47;;
45478;Laerm;31227;47.986;11.868;2023-04-24T08:03:54;38.62;35.36;43.24;;
45478;Laerm;31227;47.986;11.868;2023-04-24T08:06:19;38.72;35.66;42.82;;
45478;Laerm;31227;47.986;11.868;2023-04-24T08:08:45;39.24;35.36;51.16;;
45478;Laerm;31227;47.986;11.868;2023-04-24T08:11:10;39.05;34.69;45.51;;
45478;Laerm;31227;47.986;11.868;2023-04-24T08:13:35;38.93;35.36;43.49;;
45478;Laerm;31227;47.986;11.868;2023-04-24T08:16:00;38.67;35.36;43.81;;
45478;Laerm;31227;47.986;11.868;2023-04-24T08:18:26;39.21;35.59;48.13;;
45478;Laerm;31227;47.986;11.868;2023-04-24T08:20:51;38.99;35.66;49.80;;
45478;Laerm;31227;47.986;11.868;2023-04-24T08:23:16;38.94;35.36;43.34;;
45478;Laerm;31227;47.986;11.868;2023-04-24T08:25:41;38.72;35.36;41.75;;
45478;Laerm;31227;47.986;11.868;2023-04-24T08:28:08;39.35;35.66;45.94;;
45478;Laerm;31227;47.986;11.868;2023-04-24T08:30:33;38.57;35.59;42.65;;
45478;Laerm;31227;47.986;11.868;2023-04-24T08:32:58;39.01;35.04;45.27;;
45478;Laerm;31227;47.986;11.868;2023-04-24T08:35:24;39.19;35.36;45.37;;
45478;Laerm;31227;47.986;11.868;2023-04-24T08:37:49;38.68;35.59;44.87;;
45478;Laerm;31227;47.986;11.868;2023-04-24T08:40:15;38.77;35.36;42.53;;
45478;Laerm;31227;47.986;11.868;2023-04-24T08:42:44;39.21;35.66;44.62;;
45478;Laerm;31227;47.986;11.868;2023-04-24T08:45:10;38.85;35.36;46.48;;
45478;Laerm;31227;47.986;11.868;2023-04-24T08:47:35;38.97;35.36;44.43;;
45478;Laerm;31227;47.986;11.868;2023-04-24T08:50:03;38.90;34.69;44.80;;
45478;Laerm;31227;47.986;11.868;2023-04-24T08:52:30;38.86;35.66;46.82;;
45478;Laerm;31227;47.986;11.868;2023-04-24T08:54:57;38.68;35.36;41.94;;
45478;Laerm;31227;47.986;11.868;2023-04-24T08:57:22;38.75;35.94;44.69;;
45478;Laerm;31227;47.986;11.868;2023-04-24T08:59:47;38.93;35.59;43.90;;
45478;Laerm;31227;47.986;11.868;2023-04-24T09:02:13;39.17;35.86;45.17;;
45478;Laerm;31227;47.986;11.868;2023-04-24T09:04:40;38.83;35.04;45.01;;
45478;Laerm;31227;47.986;11.868;2023-04-24T09:07:06;39.20;35.66;45.86;;
45478;Laerm;31227;47.986;11.868;2023-04-24T09:09:31;38.72;35.36;42.53;;
45478;Laerm;31227;47.986;11.868;2023-04-24T09:11:57;39.15;35.36;45.75;;
45478;Laerm;31227;47.986;11.868;2023-04-24T09:14:23;40.29;35.94;59.54;;
45478;Laerm;31227;47.986;11.868;2023-04-24T09:16:48;39.33;35.59;51.64;;
45478;Laerm;31227;47.986;11.868;2023-04-24T09:19:14;39.13;35.66;45.60;;
45478;Laerm;31227;47.986;11.868;2023-04-24T09:21:39;39.19;35.94;48.85;;
45478;Laerm;31227;47.986;11.868;2023-04-24T09:24:08;39.01;35.36;44.69;;
45478;Laerm;31227;47.986;11.868;2023-04-24T09:26:39;39.38;35.66;47.16;;
45478;Laerm;31227;47.986;11.868;2023-04-24T09:29:04;38.95;35.36;43.68;;
45478;Laerm;31227;47.986;11.868;2023-04-24T09:31:29;39.05;35.94;47.76;;
45478;Laerm;31227;47.986;11.868;2023-04-24T09:33:55;39.32;35.94;50.56;;
45478;Laerm;31227;47.986;11.868;2023-04-24T09:36:30;39.21;35.66;53.65;;
45478;Laerm;31227;47.986;11.868;2023-04-24T09:39:01;39.33;35.66;49.10;;
45478;Laerm;31227;47.986;11.868;2023-04-24T09:41:28;39.75;35.94;56.65;;
45478;Laerm;31227;47.986;11.868;2023-04-24T09:43:56;39.30;35.66;45.42;;
45478;Laerm;31227;47.986;11.868;2023-04-24T09:46:28;39.62;35.66;49.59;;
45478;Laerm;31227;47.986;11.868;2023-04-24T09:48:53;38.93;35.04;44.54;;
45478;Laerm;31227;47.986;11.868;2023-04-24T09:51:19;39.08;35.94;45.17;;
45478;Laerm;31227;47.986;11.868;2023-04-24T09:53:57;39.40;35.36;44.19;;
45478;Laerm;31227;47.986;11.868;2023-04-24T09:56:23;39.15;36.10;45.04;;
45478;Laerm;31227;47.986;11.868;2023-04-24T09:58:51;38.88;35.94;43.09;;
45478;Laerm;31227;47.986;11.868;2023-04-24T10:01:16;38.88;35.66;42.16;;
45478;Laerm;31227;47.986;11.868;2023-04-24T10:03:53;39.61;36.20;46.88;;
45478;Laerm;31227;47.986;11.868;2023-04-24T10:06:19;39.47;36.20;44.73;;
45478;Laerm;31227;47.986;11.868;2023-04-24T10:08:44;39.70;35.94;50.45;;
45478;Laerm;31227;47.986;11.868;2023-04-24T10:11:11;39.81;35.04;46.78;;
45478;Laerm;31227;47.986;11.868;2023-04-24T10:13:36;39.38;36.20;44.39;;
45478;Laerm;31227;47.986;11.868;2023-04-24T10:16:02;39.64;35.66;46.55;;
45478;Laerm;31227;47.986;11.868;2023-04-24T10:18:28;39.54;35.94;43.86;;
45478;Laerm;31227;47.986;11.868;2023-04-24T10:20:54;39.60;36.20;46.87;;
45478;Laerm;31227;47.986;11.868;2023-04-24T10:23:21;39.52;35.66;43.86;;
45478;Laerm;31227;47.986;11.868;2023-04-24T10:25:46;39.62;35.66;45.11;;
45478;Laerm;31227;47.986;11.868;2023-04-24T10:28:13;39.35;36.45;47.18;;
45478;Laerm;31227;47.986;11.868;2023-04-24T10:30:39;40.06;35.94;47.40;;
45478;Laerm;31227;47.986;11.868;2023-04-24T10:33:08;39.55;35.94;44.03;;
45478;Laerm;31227;47.986;11.868;2023-04-24T10:35:34;39.63;36.45;45.57;;
45478;Laerm;31227;47.986;11.868;2023-04-24T10:38:04;40.02;36.34;48.05;;
45478;Laerm;31227;47.986;11.868;2023-04-24T10:40:31;39.61;36.20;44.97;;
45478;Laerm;31227;47.986;11.868;2023-04-24T10:42:58;39.83;36.20;47.38;;
45478;Laerm;31227;47.986;11.868;2023-04-24T10:45:23;40.00;36.45;49.14;;
45478;Laerm;31227;47.986;11.868;2023-04-24T10:47:52;39.75;36.20;46.82;;
45478;Laerm;31227;47.986;11.868;2023-04-24T10:50:17;39.54;36.10;43.63;;
45478;Laerm;31227;47.986;11.868;2023-04-24T10:52:46;39.69;36.20;45.54;;
45478;Laerm;31227;47.986;11.868;2023-04-24T10:55:14;40.28;36.45;52.67;;
45478;Laerm;31227;47.986;11.868;2023-04-24T10:57:40;39.97;35.94;48.02;;
45478;Laerm;31227;47.986;11.868;2023-04-24T11:00:25;39.59;35.94;43.90;;
45478;Laerm;31227;47.986;11.868;2023-04-24T11:02:55;39.74;36.10;46.18;;
45478;Laerm;31227;47.986;11.868;2023-04-24T11:05:22;40.22;36.45;48.20;;
45478;Laerm;31227;47.986;11.868;2023-04-24T11:10:31;39.95;36.20;55.60;;
45478;Laerm;31227;47.986;11.868;2023-04-24T11:12:56;40.03;35.94;48.76;;
45478;Laerm;31227;47.986;11.868;2023-04-24T11:15:22;40.08;36.20;50.07;;
45478;Laerm;31227;47.986;11.868;2023-04-24T11:17:47;39.44;36.20;45.04;;
45478;Laerm;31227;47.986;11.868;2023-04-24T11:20:16;39.69;36.20;50.61;;
45478;Laerm;31227;47.986;11.868;2023-04-24T11:22:42;41.85;35.04;68.41;;
45478;Laerm;31227;47.986;11.868;2023-04-24T11:25:10;41.23;36.20;58.64;;
45478;Laerm;31227;47.986;11.868;2023-04-24T11:27:43;39.80;36.20;46.78;;
45478;Laerm;31227;47.986;11.868;2023-04-24T11:30:09;39.90;36.20;65.37;;
45478;Laerm;31227;47.986;11.868;2023-04-24T11:32:36;39.06;36.20;44.80;;
45478;Laerm;31227;47.986;11.868;2023-04-24T11:39:58;40.22;36.45;48.58;;
45478;Laerm;31227;47.986;11.868;2023-04-24T11:42:23;39.40;35.94;48.26;;
45478;Laerm;31227;47.986;11.868;2023-04-24T11:44:51;39.69;36.20;55.26;;
45478;Laerm;31227;47.986;11.868;2023-04-24T11:47:17;39.57;36.20;48.40;;
45478;Laerm;31227;47.986;11.868;2023-04-24T11:49:42;39.51;35.36;47.43;;
45478;Laerm;31227;47.986;11.868;2023-04-24T11:52:07;39.58;36.20;47.36;;
45478;Laerm;31227;47.986;11.868;2023-04-24T11:54:32;39.80;36.20;48.40;;
45478;Laerm;31227;47.986;11.868;2023-04-24T11:56:58;39.36;36.20;50.16;;
45478;Laerm;31227;47.986;11.868;2023-04-24T11:59:23;40.19;35.66;56.33;;
45478;Laerm;31227;47.986;11.868;2023-04-24T12:01:49;41.31;36.20;61.47;;
45478;Laerm;31227;47.986;11.868;2023-04-24T12:04:14;40.63;36.20;48.52;;
45478;Laerm;31227;47.986;11.868;2023-04-24T12:06:58;39.60;36.45;48.46;;
45478;Laerm;31227;47.986;11.868;2023-04-24T12:09:23;39.48;36.20;45.57;;
45478;Laerm;31227;47.986;11.868;2023-04-24T12:11:52;39.97;36.20;56.25;;
45478;Laerm;31227;47.986;11.868;2023-04-24T12:14:17;40.12;35.94;46.38;;
45478;Laerm;31227;47.986;11.868;2023-04-24T12:16:46;39.86;35.94;45.57;;
45478;Laerm;31227;47.986;11.868;2023-04-24T12:19:12;40.07;36.34;50.91;;
45478;Laerm;31227;47.986;11.868;2023-04-24T12:21:42;40.50;36.20;54.12;;
45478;Laerm;31227;47.986;11.868;2023-04-24T12:24:07;39.80;36.69;49.96;;
45478;Laerm;31227;47.986;11.868;2023-04-24T12:26:32;39.73;36.20;46.52;;
45478;Laerm;31227;47.986;11.868;2023-04-24T12:29:00;40.10;36.20;50.55;;
45478;Laerm;31227;47.986;11.868;2023-04-24T12:31:26;39.64;36.45;44.76;;
45478;Laerm;31227;47.986;11.868;2023-04-24T12:33:54;39.71;36.20;45.33;;
45478;Laerm;31227;47.986;11.868;2023-04-24T12:36:20;39.72;36.20;44.94;;
45478;Laerm;31227;47.986;11.868;2023-04-24T12:38:46;40.87;36.91;55.69;;
45478;Laerm;31227;47.986;11.868;2023-04-24T12:41:14;41.54;36.69;70.15;;
45478;Laerm;31227;47.986;11.868;2023-04-24T12:43:49;40.42;35.94;50.92;;
45478;Laerm;31227;47.986;11.868;2023-04-24T12:46:16;39.86;36.20;54.22;;
45478;Laerm;31227;47.986;11.868;2023-04-24T12:48:41;39.40;35.36;43.04;;
45478;Laerm;31227;47.986;11.868;2023-04-24T12:51:07;39.96;35.36;44.94;;
45478;Laerm;31227;47.986;11.868;2023-04-24T12:53:32;39.12;35.04;43.81;;
45478;Laerm;31227;47.986;11.868;2023-04-24T12:55:57;39.94;35.94;47.86;;
45478;Laerm;31227;47.986;11.868;2023-04-24T12:58:22;39.04;35.36;43.29;;
45478;Laerm;31227;47.986;11.868;2023-04-24T13:00:48;38.75;35.36;43.58;;
45478;Laerm;31227;47.986;11.868;2023-04-24T13:03:13;38.75;35.04;43.04;;
45478;Laerm;31227;47.986;11.868;2023-04-24T13:05:39;39.04;35.36;45.45;;
45478;Laerm;31227;47.986;11.868;2023-04-24T13:08:05;38.76;35.36;46.03;;
45478;Laerm;31227;47.986;11.868;2023-04-24T13:10:30;38.62;35.36;42.88;;
45478;Laerm;31227;47.986;11.868;2023-04-24T13:13:01;38.96;35.04;43.34;;
45478;Laerm;31227;47.986;11.868;2023-04-24T13:15:38;38.65;35.04;41.61;;
45478;Laerm;31227;47.986;11.868;2023-04-24T13:18:03;38.62;35.36;45.42;;
45478;Laerm;31227;47.986;11.868;2023-04-24T13:23:31;38.40;34.69;41.68;;
45478;Laerm;31227;47.986;11.868;2023-04-24T13:25:56;38.74;34.69;44.90;;
45478;Laerm;31227;47.986;11.868;2023-04-24T13:28:22;38.75;34.69;45.01;;
45478;Laerm;31227;47.986;11.868;2023-04-24T13:30:48;38.32;34.69;41.14;;
45478;Laerm;31227;47.986;11.868;2023-04-24T13:33:13;38.34;34.69;44.62;;
45478;Laerm;31227;47.986;11.868;2023-04-24T13:35:38;38.79;34.31;44.31;;
45478;Laerm;31227;47.986;11.868;2023-04-24T13:38:04;38.54;34.31;43.04;;
45478;Laerm;31227;47.986;11.868;2023-04-24T13:40:31;38.48;35.36;42.09;;
45478;Laerm;31227;47.986;11.868;2023-04-24T13:42:56;38.50;35.36;42.47;;
45478;Laerm;31227;47.986;11.868;2023-04-24T13:45:21;38.56;35.04;42.09;;
45478;Laerm;31227;47.986;11.868;2023-04-24T13:47:47;38.89;35.66;45.20;;
45478;Laerm;31227;47.986;11.868;2023-04-24T13:50:12;38.80;35.36;43.49;;
45478;Laerm;31227;47.986;11.868;2023-04-24T13:52:37;39.47;35.94;45.07;;
45478;Laerm;31227;47.986;11.868;2023-04-24T13:55:02;39.07;35.66;43.99;;
45478;Laerm;31227;47.986;11.868;2023-04-24T13:57:27;39.02;35.66;43.19;;
45478;Laerm;31227;47.986;11.868;2023-04-24T13:59:53;39.02;35.66;47.52;;
45478;Laerm;31227;47.986;11.868;2023-04-24T14:02:18;39.08;35.94;44.35;;
45478;Laerm;31227;47.986;11.868;2023-04-24T14:04:44;39.68;35.94;52.59;;
45478;Laerm;31227;47.986;11.868;2023-04-24T14:07:09;39.09;35.36;46.30;;
45478;Laerm;31227;47.986;11.868;2023-04-24T14:09:34;39.61;36.20;46.55;;
45478;Laerm;31227;47.986;11.868;2023-04-24T14:11:59;39.52;35.36;55.22;;
45478;Laerm;31227;47.986;11.868;2023-04-24T14:14:26;39.38;35.66;48.60;;
45478;Laerm;31227;47.986;11.868;2023-04-24T14:16:51;39.45;36.20;50.27;;
45478;Laerm;31227;47.986;11.868;2023-04-24T14:19:16;39.58;35.94;44.15;;
45478;Laerm;31227;47.986;11.868;2023-04-24T14:21:42;39.98;35.36;54.21;;